Time;durP1;ratioP1;P1;durP2;ratioP2;P2;SDS_P1;SDS_P2;PMS_P1;PMS_P2;Temp;Humidity;BMP_temperature;BMP_pressure;BME280_temperature;BME280_humidity;BME280_pressure;Samples;Min_cycle;Max_cycle;Signal;HPM_P1;HPM_P2
2023/04/02 00:01:18;;;;;;;;;;;;;;;25.39;30.18;97045.59;5058271;28;19977;-83
2023/04/02 00:03:44;;;;;;;;;;;;;;;25.35;30.20;97041.38;5047749;28;20373;-82
2023/04/02 00:06:29;;;;;;;;;;;;;;;25.32;30.47;97047.97;5052021;28;20031;-82
2023/04/02 00:08:58;;;;;;;;;;;;;;;25.31;30.12;97044.34;5048315;28;19967;-83
2023/04/02 00:11:36;;;;;;;;;;;;;;;25.46;30.17;97038.16;5052756;28;19935;-82
2023/04/02 00:14:03;;;;;;;;;;;;;;;25.54;30.27;97047.81;5052956;28;20505;-82
2023/04/02 00:16:30;;;;;;;;;;;;;;;25.70;29.67;97045.47;5050514;28;19920;-82
2023/04/02 00:18:58;;;;;;;;;;;;;;;25.78;29.49;97048.75;5057485;28;20381;-82
2023/04/02 00:21:26;;;;;;;;;;;;;;;25.69;29.45;97049.53;5038672;28;19973;-82
2023/04/02 00:23:54;;;;;;;;;;;;;;;25.87;28.70;97054.34;5048390;28;19978;-82
2023/04/02 00:26:31;;;;;;;;;;;;;;;25.64;29.72;97050.16;5036253;28;19924;-81
2023/04/02 00:29:01;;;;;;;;;;;;;;;25.81;29.51;97053.44;5054572;28;20273;-82
2023/04/02 00:31:28;;;;;;;;;;;;;;;25.72;29.29;97059.84;5057588;28;19952;-81
2023/04/02 00:33:54;;;;;;;;;;;;;;;25.51;30.01;97051.59;5048633;28;19925;-82
2023/04/02 00:36:23;;;;;;;;;;;;;;;25.40;30.08;97061.22;5052136;28;19924;-81
2023/04/02 00:38:49;;;;;;;;;;;;;;;25.45;29.95;97062.66;5039892;28;19921;-82
2023/04/02 00:41:19;;;;;;;;;;;;;;;25.59;29.70;97061.25;5051185;28;20383;-82
2023/04/02 00:43:49;;;;;;;;;;;;;;;25.58;29.27;97059.72;5050653;28;19921;-82
2023/04/02 00:46:18;;;;;;;;;;;;;;;25.20;30.56;97060.91;5050614;28;19929;-82
2023/04/02 00:48:49;;;;;;;;;;;;;;;25.48;29.60;97064.53;5053523;28;19916;-82
2023/04/02 00:51:41;;;;;;;;;;;;;;;25.53;29.67;97068.75;5053707;28;19916;-82
2023/04/02 00:54:09;;;;;;;;;;;;;;;25.35;29.62;97067.47;5032340;28;20363;-82
2023/04/02 00:56:38;;;;;;;;;;;;;;;25.01;30.82;97058.50;5035678;28;19928;-82
2023/04/02 00:59:04;;;;;;;;;;;;;;;25.48;29.73;97070.16;5052423;28;19921;-82
2023/04/02 01:01:35;;;;;;;;;;;;;;;25.42;30.07;97067.16;5042802;28;19926;-82
2023/04/02 01:04:02;;;;;;;;;;;;;;;25.59;29.96;97070.47;5051377;28;19921;-82
2023/04/02 01:06:33;;;;;;;;;;;;;;;25.62;29.80;97074.38;5057933;28;19916;-82
2023/04/02 01:08:59;;;;;;;;;;;;;;;25.58;30.38;97076.56;5057979;28;19920;-82
2023/04/02 01:11:25;;;;;;;;;;;;;;;25.48;29.90;97080.63;5072582;28;20430;-82
2023/04/02 01:14:00;;;;;;;;;;;;;;;25.47;29.84;97081.84;5071248;28;19917;-81
2023/04/02 01:16:28;;;;;;;;;;;;;;;25.42;30.03;97084.00;5051481;28;19975;-81
2023/04/02 01:18:57;;;;;;;;;;;;;;;25.43;30.02;97076.38;5048785;28;20295;-82
2023/04/02 01:21:32;;;;;;;;;;;;;;;25.60;29.93;97086.06;5049762;28;19929;-82
2023/04/02 01:24:04;;;;;;;;;;;;;;;25.75;30.01;97086.22;5050402;28;20372;-82
2023/04/02 01:26:30;;;;;;;;;;;;;;;25.87;29.59;97090.91;5051210;28;19921;-82
2023/04/02 01:29:01;;;;;;;;;;;;;;;25.69;29.61;97088.13;5046565;28;19921;-82
2023/04/02 01:31:29;;;;;;;;;;;;;;;25.90;29.70;97090.00;5029770;28;20354;-82
2023/04/02 01:33:55;;;;;;;;;;;;;;;25.92;29.64;97093.91;5043928;28;19964;-82
2023/04/02 01:36:21;;;;;;;;;;;;;;;25.99;29.29;97089.97;5049887;28;19999;-82
2023/04/02 01:38:56;;;;;;;;;;;;;;;26.13;28.91;97092.16;5049527;28;20016;-82
2023/04/02 01:41:29;;;;;;;;;;;;;;;26.05;29.16;97090.88;5046500;28;19920;-82
2023/04/02 01:44:05;;;;;;;;;;;;;;;25.86;29.59;97087.31;5050464;28;19916;-82
2023/04/02 01:46:33;;;;;;;;;;;;;;;25.46;30.88;97099.97;5043772;28;20023;-82
2023/04/02 01:49:01;;;;;;;;;;;;;;;25.89;30.12;97089.19;5045595;28;19927;-82
2023/04/02 01:51:29;;;;;;;;;;;;;;;26.14;29.38;97098.59;5043896;28;20039;-82
2023/04/02 01:53:57;;;;;;;;;;;;;;;26.35;29.22;97092.72;5047947;28;19920;-82
2023/04/02 01:56:25;;;;;;;;;;;;;;;26.56;29.01;97090.94;5050510;28;19921;-82
2023/04/02 01:58:51;;;;;;;;;;;;;;;26.55;28.61;97087.38;5047605;28;19924;-82
2023/04/02 02:01:19;;;;;;;;;;;;;;;26.67;28.46;97088.41;5050703;28;20388;-82
2023/04/02 02:03:45;;;;;;;;;;;;;;;26.69;28.12;97099.97;5044330;28;20258;-82
2023/04/02 02:06:12;;;;;;;;;;;;;;;26.55;28.80;97104.25;5047299;28;20025;-82
2023/04/02 02:08:50;;;;;;;;;;;;;;;25.72;29.70;97104.06;5046935;28;20029;-82
2023/04/02 02:11:19;;;;;;;;;;;;;;;25.25;30.32;97108.03;5030214;28;19928;-82
2023/04/02 02:14:10;;;;;;;;;;;;;;;24.92;31.24;97111.84;5049433;28;19921;-82
2023/04/02 02:16:40;;;;;;;;;;;;;;;20.09;40.23;97118.25;5039595;28;19927;-82
2023/04/02 02:19:14;;;;;;;;;;;;;;;20.57;39.78;97118.38;5059104;28;19920;-82
2023/04/02 02:21:42;;;;;;;;;;;;;;;22.35;35.67;97111.28;5060799;28;19920;-82
2023/04/02 02:24:19;;;;;;;;;;;;;;;23.54;33.70;97122.63;5053619;28;19928;-81
2023/04/02 02:26:47;;;;;;;;;;;;;;;24.33;32.02;97118.56;5050486;28;20622;-82
2023/04/02 02:29:16;;;;;;;;;;;;;;;24.83;31.01;97118.22;5042821;28;19917;-82
2023/04/02 02:31:44;;;;;;;;;;;;;;;24.50;31.27;97114.28;5046775;28;19925;-82
2023/04/02 02:34:23;;;;;;;;;;;;;;;24.50;31.49;97117.09;5058398;28;19916;-82
2023/04/02 02:36:55;;;;;;;;;;;;;;;24.65;31.18;97113.28;5062132;28;19920;-82
2023/04/02 02:39:24;;;;;;;;;;;;;;;24.88;30.72;97114.78;5059780;28;19924;-82
2023/04/02 02:41:50;;;;;;;;;;;;;;;24.95;30.89;97120.13;5053820;28;20008;-82
2023/04/02 02:44:20;;;;;;;;;;;;;;;24.77;30.70;97122.06;5053992;28;19964;-82
2023/04/02 02:46:51;;;;;;;;;;;;;;;24.71;31.60;97127.50;5051673;28;20462;-82
2023/04/02 02:49:20;;;;;;;;;;;;;;;24.92;30.96;97117.47;5053769;28;19921;-81
2023/04/02 02:51:48;;;;;;;;;;;;;;;25.06;30.72;97126.09;5056564;28;19940;-82
2023/04/02 02:54:17;;;;;;;;;;;;;;;25.22;30.44;97130.66;5055141;28;19917;-82
2023/04/02 02:56:46;;;;;;;;;;;;;;;24.88;30.56;97134.44;5053726;28;19912;-82
2023/04/02 02:59:13;;;;;;;;;;;;;;;24.67;31.00;97141.66;5053514;28;19920;-82
2023/04/02 03:01:40;;;;;;;;;;;;;;;24.37;31.40;97139.63;5055603;28;20335;-82
2023/04/02 03:04:06;;;;;;;;;;;;;;;24.50;31.10;97139.56;5037610;28;20387;-82
2023/04/02 03:06:33;;;;;;;;;;;;;;;24.63;30.82;97138.22;5052920;28;19920;-82
2023/04/02 03:09:18;;;;;;;;;;;;;;;24.41;31.60;97145.13;5066364;28;19920;-82
2023/04/02 03:11:50;;;;;;;;;;;;;;;24.47;31.35;97149.66;5038272;28;20292;-82
2023/04/02 03:14:16;;;;;;;;;;;;;;;23.99;31.79;97153.81;5052808;28;19921;-82
2023/04/02 03:16:45;;;;;;;;;;;;;;;24.10;31.95;97147.88;5054106;28;20392;-82
2023/04/02 03:19:30;;;;;;;;;;;;;;;24.01;32.11;97147.78;5051694;28;19925;-82
2023/04/02 03:22:01;;;;;;;;;;;;;;;24.38;31.89;97151.63;5046676;28;20019;-82
2023/04/02 03:24:31;;;;;;;;;;;;;;;24.95;30.80;97145.38;5051114;28;19932;-82
2023/04/02 03:27:17;;;;;;;;;;;;;;;25.11;30.02;97150.00;5051390;28;20376;-82
2023/04/02 03:30:00;;;;;;;;;;;;;;;25.07;29.74;97147.31;5052352;28;20011;-82
2023/04/02 03:32:29;;;;;;;;;;;;;;;23.91;31.14;97158.13;5049530;28;19924;-82
2023/04/02 03:35:01;;;;;;;;;;;;;;;24.04;31.10;97156.03;5060058;28;19928;-82
2023/04/02 03:37:35;;;;;;;;;;;;;;;24.62;30.04;97155.53;5033024;28;19920;-82
2023/04/02 03:40:06;;;;;;;;;;;;;;;23.91;31.15;97162.94;5049388;28;19925;-82
2023/04/02 03:42:44;;;;;;;;;;;;;;;24.00;30.80;97166.63;5048424;28;19931;-82
2023/04/02 03:45:13;;;;;;;;;;;;;;;24.24;31.38;97171.81;5049971;28;19921;-82
2023/04/02 03:47:59;;;;;;;;;;;;;;;24.80;30.22;97166.09;5048243;28;19968;-82
2023/04/02 03:50:25;;;;;;;;;;;;;;;25.05;29.67;97166.66;5044408;28;19927;-82
2023/04/02 03:52:51;;;;;;;;;;;;;;;25.26;29.05;97176.25;5064773;28;19924;-82
2023/04/02 03:55:23;;;;;;;;;;;;;;;24.98;29.91;97175.38;5048471;28;19921;-82
2023/04/02 03:58:13;;;;;;;;;;;;;;;25.03;29.67;97176.78;5047949;28;19924;-82
2023/04/02 04:00:52;;;;;;;;;;;;;;;25.28;29.28;97177.34;5053796;28;19927;-82
2023/04/02 04:03:23;;;;;;;;;;;;;;;25.41;29.24;97182.84;5037563;28;19955;-82
2023/04/02 04:05:57;;;;;;;;;;;;;;;25.40;29.08;97181.28;5052942;28;19927;-82
2023/04/02 04:08:41;;;;;;;;;;;;;;;25.49;28.74;97186.94;5051689;28;19921;-82
2023/04/02 04:11:09;;;;;;;;;;;;;;;25.26;29.17;97185.47;5052002;28;19927;-82
2023/04/02 04:13:45;;;;;;;;;;;;;;;25.53;28.54;97189.63;5053360;28;20003;-82
2023/04/02 04:16:15;;;;;;;;;;;;;;;25.55;28.55;97196.34;5058678;28;19916;-82
2023/04/02 04:18:46;;;;;;;;;;;;;;;25.29;29.82;97192.97;5072987;28;19927;-82
2023/04/02 04:21:35;;;;;;;;;;;;;;;25.20;29.36;97203.38;5073921;28;19921;-83
2023/04/02 04:24:04;;;;;;;;;;;;;;;25.28;29.21;97205.44;5056825;28;19971;-82
2023/04/02 04:26:42;;;;;;;;;;;;;;;25.24;28.98;97201.22;5052224;28;19944;-82
2023/04/02 04:29:14;;;;;;;;;;;;;;;25.01;29.76;97212.97;5039783;28;19925;-82
2023/04/02 04:31:45;;;;;;;;;;;;;;;25.05;29.72;97210.81;5053878;28;19928;-82
2023/04/02 04:34:17;;;;;;;;;;;;;;;25.35;29.47;97213.59;5060431;28;19928;-82
2023/04/02 04:36:53;;;;;;;;;;;;;;;25.54;28.92;97213.66;5054999;28;19923;-82
2023/04/02 04:39:39;;;;;;;;;;;;;;;25.54;28.99;97216.47;5053271;28;20012;-82
2023/04/02 04:42:06;;;;;;;;;;;;;;;25.63;28.82;97219.28;5036234;28;20031;-82
2023/04/02 04:44:38;;;;;;;;;;;;;;;25.55;29.08;97224.47;5052177;28;19974;-82
2023/04/02 04:47:23;;;;;;;;;;;;;;;25.55;28.99;97229.28;5049530;28;19928;-82
2023/04/02 04:50:12;;;;;;;;;;;;;;;25.70;28.67;97235.88;5048825;28;19921;-82
2023/04/02 04:52:39;;;;;;;;;;;;;;;25.66;28.47;97221.19;5036107;28;20400;-82
2023/04/02 04:55:38;;;;;;;;;;;;;;;25.51;28.94;97237.09;5043424;28;20214;-82
2023/04/02 04:58:10;;;;;;;;;;;;;;;25.48;28.98;97235.19;5028415;28;20004;-82
2023/04/02 05:00:36;;;;;;;;;;;;;;;25.51;28.86;97240.66;5050479;28;19928;-82
2023/04/02 05:03:22;;;;;;;;;;;;;;;25.58;28.02;97240.38;5052130;28;20292;-82
2023/04/02 05:05:48;;;;;;;;;;;;;;;25.06;28.94;97244.06;5052050;28;19924;-82
2023/04/02 05:08:24;;;;;;;;;;;;;;;24.96;28.85;97250.88;5062311;28;19931;-82
2023/04/02 05:11:00;;;;;;;;;;;;;;;24.56;29.51;97253.56;5052817;28;19916;-82
2023/04/02 05:13:31;;;;;;;;;;;;;;;24.28;29.92;97248.19;5036188;28;19923;-82
2023/04/02 05:16:06;;;;;;;;;;;;;;;23.86;30.16;97250.44;5045691;28;19922;-82
2023/04/02 05:18:42;;;;;;;;;;;;;;;24.12;30.22;97251.97;5045253;28;19929;-82
2023/04/02 05:21:22;;;;;;;;;;;;;;;24.20;30.20;97258.13;5049736;28;19925;-82
2023/04/02 05:23:48;;;;;;;;;;;;;;;24.13;29.78;97261.16;5052803;28;19928;-82
2023/04/02 05:26:18;;;;;;;;;;;;;;;24.43;29.85;97264.06;5053723;28;19920;-82
2023/04/02 05:28:53;;;;;;;;;;;;;;;24.63;29.22;97264.53;5050699;28;20004;-82
2023/04/02 05:31:21;;;;;;;;;;;;;;;24.43;29.70;97263.28;5051743;28;19929;-82
2023/04/02 05:33:47;;;;;;;;;;;;;;;24.64;29.37;97268.88;5049062;28;20354;-82
2023/04/02 05:36:18;;;;;;;;;;;;;;;24.90;29.05;97269.53;5051082;28;19920;-82
2023/04/02 05:38:46;;;;;;;;;;;;;;;23.34;30.77;97264.94;5048113;28;19980;-82
2023/04/02 05:41:25;;;;;;;;;;;;;;;23.66;30.45;97267.53;5050679;28;19920;-83
2023/04/02 05:44:04;;;;;;;;;;;;;;;23.84;30.13;97276.13;5049785;28;20301;-82
2023/04/02 05:46:33;;;;;;;;;;;;;;;24.25;29.58;97277.94;5045864;28;20392;-82
2023/04/02 05:48:59;;;;;;;;;;;;;;;24.35;29.69;97282.41;5049744;28;19928;-83
2023/04/02 05:51:35;;;;;;;;;;;;;;;24.43;29.95;97282.94;5052146;28;19920;-83
2023/04/02 05:54:03;;;;;;;;;;;;;;;24.36;29.63;97286.78;5047550;28;20036;-83
2023/04/02 05:56:34;;;;;;;;;;;;;;;24.56;29.79;97280.84;5050200;28;20384;-83
2023/04/02 05:59:07;;;;;;;;;;;;;;;24.62;28.99;97285.41;5048440;28;20016;-83
2023/04/02 06:01:36;;;;;;;;;;;;;;;24.78;29.20;97283.69;5048341;28;20011;-83
2023/04/02 06:04:02;;;;;;;;;;;;;;;25.07;28.37;97293.38;5050104;28;19967;-83
2023/04/02 06:06:35;;;;;;;;;;;;;;;24.61;30.00;97288.69;5054281;28;19920;-83
2023/04/02 06:09:07;;;;;;;;;;;;;;;24.96;29.20;97295.81;5050787;28;20288;-83
2023/04/02 06:11:41;;;;;;;;;;;;;;;24.74;28.77;97292.19;5054460;28;19944;-83
2023/04/02 06:14:10;;;;;;;;;;;;;;;24.63;29.19;97292.59;5054903;28;20434;-84
2023/04/02 06:16:37;;;;;;;;;;;;;;;24.53;30.26;97292.97;5056789;28;20055;-84
2023/04/02 06:19:07;;;;;;;;;;;;;;;24.73;29.87;97304.69;5054758;28;20334;-83
2023/04/02 06:21:33;;;;;;;;;;;;;;;24.74;29.93;97300.59;5050526;28;19921;-83
2023/04/02 06:24:01;;;;;;;;;;;;;;;24.82;29.38;97306.78;5052719;28;19927;-84
2023/04/02 06:26:30;;;;;;;;;;;;;;;24.31;29.62;97309.00;5036983;28;22834;-83
2023/04/02 06:29:08;;;;;;;;;;;;;;;23.86;30.40;97314.91;5055687;28;20023;-83
2023/04/02 06:31:43;;;;;;;;;;;;;;;24.30;30.34;97318.66;5050035;28;20291;-83
2023/04/02 06:34:30;;;;;;;;;;;;;;;23.69;32.32;97317.06;5034784;28;19957;-84
2023/04/02 06:36:57;;;;;;;;;;;;;;;21.51;36.32;97318.34;5052669;28;19927;-85
2023/04/02 06:39:25;;;;;;;;;;;;;;;22.93;32.56;97318.22;5048571;28;20385;-85
2023/04/02 06:41:55;;;;;;;;;;;;;;;22.96;32.66;97315.34;5048026;28;20311;-84
2023/04/02 06:44:23;;;;;;;;;;;;;;;23.01;32.60;97316.78;5048516;28;20296;-83
2023/04/02 06:46:57;;;;;;;;;;;;;;;23.60;31.35;97321.78;5055691;28;20326;-82
2023/04/02 06:49:33;;;;;;;;;;;;;;;23.92;31.84;97327.91;5056788;28;20276;-84
2023/04/02 06:52:00;;;;;;;;;;;;;;;24.42;30.23;97315.03;5053935;28;19917;-83
2023/04/02 06:54:26;;;;;;;;;;;;;;;24.15;31.12;97326.78;5035549;28;19925;-86
2023/04/02 06:56:55;;;;;;;;;;;;;;;23.13;32.52;97333.59;5054347;28;19963;-83
2023/04/02 06:59:21;;;;;;;;;;;;;;;23.75;32.83;97329.28;5051068;28;20280;-84
2023/04/02 07:01:52;;;;;;;;;;;;;;;24.33;32.58;97326.97;5045188;28;19917;-83
2023/04/02 07:04:19;;;;;;;;;;;;;;;23.59;31.46;97326.63;5048904;28;19976;-82
2023/04/02 07:06:45;;;;;;;;;;;;;;;23.94;31.47;97338.69;5052074;28;19925;-83
2023/04/02 07:09:11;;;;;;;;;;;;;;;24.27;31.29;97337.16;5047879;28;19924;-83
2023/04/02 07:11:38;;;;;;;;;;;;;;;24.73;30.18;97346.78;5050063;28;19936;-82
2023/04/02 07:14:04;;;;;;;;;;;;;;;23.95;31.74;97343.06;5052924;28;20365;-82
2023/04/02 07:16:31;;;;;;;;;;;;;;;24.14;31.37;97341.25;5046863;28;20287;-82
2023/04/02 07:19:00;;;;;;;;;;;;;;;23.21;32.45;97350.97;5047531;28;20373;-83
2023/04/02 07:21:26;;;;;;;;;;;;;;;23.94;32.63;97356.28;5046862;28;19921;-83
2023/04/02 07:23:53;;;;;;;;;;;;;;;24.10;31.19;97346.19;5048303;28;19921;-82
2023/04/02 07:26:21;;;;;;;;;;;;;;;23.08;33.21;97359.34;5045469;28;19917;-82
2023/04/02 07:28:47;;;;;;;;;;;;;;;23.35;33.35;97358.97;5044937;28;20292;-84
2023/04/02 07:31:18;;;;;;;;;;;;;;;22.16;36.52;97355.47;5032860;28;20300;-82
2023/04/02 07:33:44;;;;;;;;;;;;;;;22.17;35.17;97371.03;5043458;28;19936;-82
2023/04/02 07:36:13;;;;;;;;;;;;;;;23.02;32.80;97363.94;5051437;28;19928;-81
2023/04/02 07:38:39;;;;;;;;;;;;;;;23.48;32.66;97370.97;5046033;28;19913;-82
2023/04/02 07:41:05;;;;;;;;;;;;;;;23.76;31.61;97370.09;5042522;28;20273;-83
2023/04/02 07:43:31;;;;;;;;;;;;;;;24.42;31.52;97366.31;5051826;28;19974;-84
2023/04/02 07:45:58;;;;;;;;;;;;;;;24.42;30.52;97371.94;5049244;28;20460;-84
2023/04/02 07:48:24;;;;;;;;;;;;;;;24.18;31.59;97378.41;5046995;28;19924;-87
2023/04/02 07:50:50;;;;;;;;;;;;;;;23.13;32.51;97386.00;5048183;28;19922;-83
2023/04/02 07:53:29;;;;;;;;;;;;;;;23.35;35.48;97378.59;5046539;28;19928;-83
2023/04/02 07:55:55;;;;;;;;;;;;;;;22.41;35.24;97391.19;5021761;28;19929;-83
2023/04/02 07:58:21;;;;;;;;;;;;;;;20.90;38.90;97390.66;5050594;28;20027;-82
2023/04/02 08:00:47;;;;;;;;;;;;;;;21.41;39.01;97396.78;5044560;28;20012;-83
2023/04/02 08:03:13;;;;;;;;;;;;;;;20.98;37.11;97392.06;5051152;28;20440;-84
2023/04/02 08:05:39;;;;;;;;;;;;;;;22.79;35.86;97391.41;5049680;28;20380;-84
2023/04/02 08:08:05;;;;;;;;;;;;;;;21.08;39.01;97401.47;5049061;28;20394;-84
2023/04/02 08:10:31;;;;;;;;;;;;;;;22.31;34.65;97397.84;5054300;28;20394;-84
2023/04/02 08:12:57;;;;;;;;;;;;;;;23.02;32.55;97403.13;5047768;28;19925;-84
2023/04/02 08:15:23;;;;;;;;;;;;;;;24.10;30.28;97405.88;5051664;28;20012;-83
2023/04/02 08:17:50;;;;;;;;;;;;;;;24.20;30.84;97406.78;5050528;28;19929;-83
2023/04/02 08:20:17;;;;;;;;;;;;;;;23.47;30.74;97413.47;5045136;28;19932;-84
2023/04/02 08:22:44;;;;;;;;;;;;;;;23.30;34.15;97415.53;5045990;28;19960;-84
2023/04/02 08:25:10;;;;;;;;;;;;;;;20.51;40.10;97424.84;5053647;28;19920;-84
2023/04/02 08:27:37;;;;;;;;;;;;;;;18.54;45.83;97427.59;5052441;28;20015;-83
2023/04/02 08:30:03;;;;;;;;;;;;;;;18.51;45.83;97431.97;5052628;28;20376;-83
2023/04/02 08:32:29;;;;;;;;;;;;;;;17.21;49.55;97438.44;5053380;28;19917;-84
2023/04/02 08:34:55;;;;;;;;;;;;;;;17.20;47.99;97454.28;5042307;28;19932;-86
2023/04/02 08:37:21;;;;;;;;;;;;;;;18.37;44.23;97451.53;5047712;28;20422;-85
2023/04/02 08:39:47;;;;;;;;;;;;;;;17.76;44.93;97458.75;5040884;28;19921;-84
2023/04/02 08:42:13;;;;;;;;;;;;;;;18.17;44.53;97458.06;5044587;28;19921;-85
2023/04/02 08:44:42;;;;;;;;;;;;;;;17.81;47.05;97469.44;5046408;28;19931;-84
2023/04/02 08:47:09;;;;;;;;;;;;;;;19.62;39.10;97469.25;5033011;28;19925;-84
2023/04/02 08:49:50;;;;;;;;;;;;;;;19.57;39.51;97478.06;5047338;28;19947;-84
2023/04/02 08:52:22;;;;;;;;;;;;;;;20.62;38.00;97477.66;5047885;28;19927;-86
2023/04/02 08:54:48;;;;;;;;;;;;;;;21.74;35.29;97483.03;5045647;28;20399;-85
2023/04/02 08:57:17;;;;;;;;;;;;;;;21.21;36.93;97483.38;5045546;28;20007;-85
2023/04/02 08:59:44;;;;;;;;;;;;;;;21.92;35.25;97500.22;5040688;28;19974;-85
2023/04/02 09:02:16;;;;;;;;;;;;;;;20.68;37.91;97499.06;5047000;28;19924;-84
2023/04/02 09:04:42;;;;;;;;;;;;;;;18.11;44.45;97510.50;5049471;28;20020;-85
2023/04/02 09:07:11;;;;;;;;;;;;;;;15.07;52.34;97534.06;5048079;28;20457;-84
2023/04/02 09:09:37;;;;;;;;;;;;;;;14.75;53.06;97527.56;5043848;28;19931;-85
2023/04/02 09:12:05;;;;;;;;;;;;;;;14.12;58.10;97544.38;5042379;28;19962;-84
2023/04/02 09:14:41;;;;;;;;;;;;;;;14.06;55.86;97549.44;5045580;28;19999;-84
2023/04/02 09:17:14;;;;;;;;;;;;;;;14.90;51.46;97549.34;5046979;28;20388;-84
2023/04/02 09:19:43;;;;;;;;;;;;;;;14.87;54.54;97549.31;5046775;28;19925;-83
2023/04/02 09:22:12;;;;;;;;;;;;;;;14.57;54.61;97560.56;5047391;28;19932;-83
2023/04/02 09:24:38;;;;;;;;;;;;;;;14.52;54.42;97570.00;5046068;28;19921;-84
2023/04/02 09:27:13;;;;;;;;;;;;;;;15.68;47.08;97575.44;5049502;28;19921;-85
2023/04/02 09:29:43;;;;;;;;;;;;;;;15.32;50.32;97575.63;5042739;28;19933;-84
2023/04/02 09:32:22;;;;;;;;;;;;;;;14.83;51.95;97579.69;5046480;28;19921;-84
2023/04/02 09:34:48;;;;;;;;;;;;;;;14.59;52.91;97580.31;5049504;28;19939;-84
2023/04/02 09:37:18;;;;;;;;;;;;;;;14.97;52.51;97592.81;5053521;28;20007;-85
2023/04/02 09:39:44;;;;;;;;;;;;;;;14.32;54.16;97598.22;5053405;28;19936;-84
2023/04/02 09:42:28;;;;;;;;;;;;;;;14.53;50.85;97609.47;5044547;28;20403;-85
2023/04/02 09:45:33;;;;;;;;;;;;;;;15.09;49.52;97607.13;5049413;28;20383;-85
2023/04/02 09:47:59;;;;;;;;;;;;;;;14.69;51.76;97617.47;4990480;28;19929;-85
2023/04/02 09:50:32;;;;;;;;;;;;;;;14.75;50.82;97622.25;4990858;28;20091;-85
2023/04/02 09:53:15;;;;;;;;;;;;;;;17.28;42.00;97622.31;5019739;28;19924;-85
2023/04/02 09:55:41;;;;;;;;;;;;;;;16.99;42.54;97619.97;5050554;28;19928;-85
2023/04/02 09:58:10;;;;;;;;;;;;;;;17.37;43.31;97629.41;5043483;28;19917;-85
2023/04/02 10:00:37;;;;;;;;;;;;;;;17.87;40.42;97633.66;5049531;28;19928;-85
2023/04/02 10:03:03;;;;;;;;;;;;;;;17.97;39.97;97640.34;5043142;28;19991;-85
2023/04/02 10:05:29;;;;;;;;;;;;;;;19.32;37.49;97641.81;5046192;28;19924;-85
2023/04/02 10:08:04;;;;;;;;;;;;;;;18.38;39.86;97655.22;5048820;28;19932;-86
2023/04/02 10:10:42;;;;;;;;;;;;;;;19.54;36.81;97653.53;5046870;28;19963;-86
2023/04/02 10:13:28;;;;;;;;;;;;;;;18.28;40.12;97656.84;5053033;28;19925;-86
2023/04/02 10:15:58;;;;;;;;;;;;;;;19.70;36.30;97662.09;5045869;28;19929;-86
2023/04/02 10:18:43;;;;;;;;;;;;;;;18.46;37.21;97677.03;5047695;28;19929;-85
2023/04/02 10:21:10;;;;;;;;;;;;;;;18.71;38.11;97690.78;5045786;28;19979;-85
2023/04/02 10:23:37;;;;;;;;;;;;;;;17.74;38.94;97696.34;5039909;28;20288;-86
2023/04/02 10:26:14;;;;;;;;;;;;;;;19.50;36.01;97694.53;5041807;28;19960;-87
2023/04/02 10:28:41;;;;;;;;;;;;;;;18.66;37.62;97696.78;5038799;28;19920;-86
2023/04/02 10:31:11;;;;;;;;;;;;;;;20.14;34.60;97689.84;5042122;28;19925;-88
2023/04/02 10:33:39;;;;;;;;;;;;;;;19.68;34.78;97698.72;5040084;28;19929;-87
2023/04/02 10:36:21;;;;;;;;;;;;;;;19.92;33.30;97703.25;5037734;28;19921;-88
2023/04/02 10:38:55;;;;;;;;;;;;;;;20.53;33.18;97704.13;5042084;28;19920;-86
2023/04/02 10:41:36;;;;;;;;;;;;;;;19.47;34.82;97715.63;5048918;28;20024;-86
2023/04/02 10:44:11;;;;;;;;;;;;;;;20.17;33.46;97716.88;5039898;28;19927;-87
2023/04/02 10:46:37;;;;;;;;;;;;;;;21.05;32.38;97706.56;5044256;28;19925;-86
2023/04/02 10:49:09;;;;;;;;;;;;;;;20.96;32.11;97715.44;5049323;28;19920;-86
2023/04/02 10:51:42;;;;;;;;;;;;;;;21.89;31.65;97721.88;5055095;28;19978;-85
2023/04/02 10:54:08;;;;;;;;;;;;;;;22.17;30.63;97722.56;5058775;28;19947;-82
2023/04/02 10:56:35;;;;;;;;;;;;;;;22.08;31.16;97733.53;5050714;28;20368;-82
2023/04/02 10:59:05;;;;;;;;;;;;;;;21.54;31.74;97733.66;5034853;28;19925;-82
2023/04/02 11:01:33;;;;;;;;;;;;;;;21.33;31.68;97739.63;5039584;28;20012;-85
2023/04/02 11:04:01;;;;;;;;;;;;;;;20.40;33.52;97744.09;5037250;28;19927;-83
2023/04/02 11:06:37;;;;;;;;;;;;;;;20.80;32.01;97750.75;5027727;28;19931;-84
2023/04/02 11:09:05;;;;;;;;;;;;;;;20.80;32.29;97754.34;5043339;28;19920;-83
2023/04/02 11:11:35;;;;;;;;;;;;;;;21.19;31.88;97762.19;5042722;28;20356;-84
2023/04/02 11:14:14;;;;;;;;;;;;;;;19.45;34.86;97772.94;5044717;28;19924;-84
2023/04/02 11:16:40;;;;;;;;;;;;;;;18.17;37.35;97780.34;5034859;28;20015;-83
2023/04/02 11:19:06;;;;;;;;;;;;;;;19.44;34.48;97766.56;5054449;28;20384;-83
2023/04/02 11:21:37;;;;;;;;;;;;;;;19.44;34.34;97779.72;5050526;28;19921;-82
2023/04/02 11:24:03;;;;;;;;;;;;;;;18.47;36.34;97780.66;5024864;28;19974;-83
2023/04/02 11:26:36;;;;;;;;;;;;;;;19.16;35.71;97786.25;5047836;28;19982;-84
2023/04/02 11:29:21;;;;;;;;;;;;;;;20.26;33.27;97784.09;5042605;28;19925;-85
2023/04/02 11:31:48;;;;;;;;;;;;;;;21.28;32.49;97787.56;5026780;28;20426;-84
2023/04/02 11:34:34;;;;;;;;;;;;;;;21.34;31.78;97789.47;5019538;28;19968;-84
2023/04/02 11:37:01;;;;;;;;;;;;;;;22.02;31.44;97789.13;5040027;28;19975;-83
2023/04/02 11:39:45;;;;;;;;;;;;;;;21.99;31.04;97784.41;5052692;28;19921;-83
2023/04/02 11:42:11;;;;;;;;;;;;;;;21.74;31.28;97793.19;5051775;28;20032;-83
2023/04/02 11:44:37;;;;;;;;;;;;;;;21.27;32.15;97805.53;5051210;28;19928;-83
2023/04/02 11:47:30;;;;;;;;;;;;;;;21.29;31.36;97789.94;5050826;28;19925;-83
2023/04/02 11:50:02;;;;;;;;;;;;;;;20.87;32.40;97807.25;5040391;28;19921;-83
2023/04/02 11:52:31;;;;;;;;;;;;;;;21.14;31.75;97798.94;5047560;28;19936;-83
2023/04/02 11:55:16;;;;;;;;;;;;;;;21.32;30.99;97805.06;5053413;28;19963;-83
2023/04/02 11:57:45;;;;;;;;;;;;;;;20.08;33.71;97816.13;5042682;28;19925;-84
2023/04/02 12:00:19;;;;;;;;;;;;;;;19.56;34.51;97818.97;5046020;28;19920;-82
2023/04/02 12:03:05;;;;;;;;;;;;;;;20.02;33.71;97821.38;5052849;28;20029;-82
2023/04/02 12:05:38;;;;;;;;;;;;;;;20.50;31.94;97815.69;5068928;28;20383;-82
2023/04/02 12:08:07;;;;;;;;;;;;;;;19.78;33.04;97831.53;5058209;28;19956;-80
2023/04/02 12:10:50;;;;;;;;;;;;;;;20.38;32.65;97827.38;5045932;28;20308;-80
2023/04/02 12:13:19;;;;;;;;;;;;;;;19.25;33.38;97836.69;5062525;28;19985;-80
2023/04/02 12:15:47;;;;;;;;;;;;;;;19.14;34.56;97839.53;5068079;28;20057;-81
2023/04/02 12:18:15;;;;;;;;;;;;;;;19.90;33.18;97830.25;5053287;28;19917;-81
2023/04/02 12:20:46;;;;;;;;;;;;;;;19.97;33.61;97833.75;5034012;28;19924;-81
2023/04/02 12:23:38;;;;;;;;;;;;;;;19.91;32.90;97849.31;5035275;28;19925;-81
2023/04/02 12:26:23;;;;;;;;;;;;;;;20.19;32.59;97847.47;5052297;28;20012;-81
2023/04/02 12:28:49;;;;;;;;;;;;;;;20.77;31.50;97838.09;5053152;28;20102;-81
2023/04/02 12:31:18;;;;;;;;;;;;;;;21.31;31.29;97851.72;5061036;28;20015;-81
2023/04/02 12:33:44;;;;;;;;;;;;;;;21.39;30.86;97843.25;5052511;28;19920;-81
2023/04/02 12:36:12;;;;;;;;;;;;;;;21.29;31.32;97845.00;5051925;28;19923;-81
2023/04/02 12:38:47;;;;;;;;;;;;;;;21.23;30.78;97839.09;5052779;28;20005;-82
2023/04/02 12:41:23;;;;;;;;;;;;;;;21.35;30.71;97848.91;5048772;28;19940;-82
2023/04/02 12:43:58;;;;;;;;;;;;;;;21.64;30.52;97844.44;5052467;28;19967;-83
2023/04/02 12:46:25;;;;;;;;;;;;;;;21.07;31.41;97846.50;5056010;28;19921;-84
2023/04/02 12:48:52;;;;;;;;;;;;;;;21.46;31.40;97851.53;5049204;28;19920;-83
2023/04/02 12:51:18;;;;;;;;;;;;;;;21.74;30.42;97851.88;5051702;28;20355;-84
2023/04/02 12:53:49;;;;;;;;;;;;;;;21.47;30.80;97861.50;5050071;28;19929;-83
2023/04/02 12:56:20;;;;;;;;;;;;;;;21.27;31.46;97856.59;5051310;28;20297;-83
2023/04/02 12:58:53;;;;;;;;;;;;;;;20.77;32.58;97866.00;5050514;28;19929;-84
2023/04/02 13:01:22;;;;;;;;;;;;;;;18.64;35.05;97874.34;5052833;28;19991;-85
2023/04/02 13:04:11;;;;;;;;;;;;;;;20.07;33.45;97876.66;5051602;28;19956;-84
2023/04/02 13:06:37;;;;;;;;;;;;;;;20.98;32.72;97877.66;5033516;28;20388;-84
2023/04/02 13:09:06;;;;;;;;;;;;;;;21.24;30.80;97876.97;5065005;28;20288;-84